Terminal Aerodrome Forecast
Issued by NWS Pocatello, ID

Home | Current Version | Previous Version | Text Only | Print | Product List | Glossary On
Versions: 1 2 3 4 5 6 7 8 9 10 11 12 13 14 15 16
000
FTUS45 KPIH 220520
TAFIDA
TAF
KIDA 220520Z 2206/2306 20012KT P6SM -RA SCT020 OVC030
     FM220800 20012KT 6SM -SHRA BR BKN015 OVC020
     FM221200 21015G25KT P6SM SCT020 BKN030
     FM221800 22025G35KT P6SM SCT025 BKN080
     FM230300 21015G25KT P6SM FEW025 BKN080=

USA.gov is the U.S. government's official web portal to all federal, state and local government web resources and services.